East Lynn, Illinois
Current Conditions -  °F | °C
As of 9:35 AM on Monday 22 Dec 2014 (Local Time) from KDNV Reporting Station
Light Rain Light Rain  
Wind Chill: 26°   Ceiling: 2600
Heat Index: 34°   Visibility: 7mi
Dew Point: 31°   Wind: 10mph
Humidity: 90%   Direction: 120°ESE
Pressure: 29.85"   Gusts: NA
Location:  40.47°N, 87.8°W
Report Text: KDNV 221535Z AUTO 12009KT 7SM -RA BKN026 BKN040 OVC080 01/00 A2985 RMK AO2 T00111004
Loading
Personal Weather Stations






























Interactive Weather Map New forecast layout! Learn more

10-Day Weather Forecast

Advertisements
Track Severe Weather on mobile